sensor_id;sensor_type;location;lat;lon;timestamp;P1;durP1;ratioP1;P2;durP2;ratioP2
19812;SDS011;10066;48.108;11.448;2023-05-13T00:02:27;8.10;;;6.83;;
19812;SDS011;10066;48.108;11.448;2023-05-13T00:04:54;7.87;;;6.00;;
19812;SDS011;10066;48.108;11.448;2023-05-13T00:07:21;7.77;;;6.57;;
19812;SDS011;10066;48.108;11.448;2023-05-13T00:09:48;8.00;;;6.63;;
19812;SDS011;10066;48.108;11.448;2023-05-13T00:12:18;7.80;;;6.83;;
19812;SDS011;10066;48.108;11.448;2023-05-13T00:14:45;10.67;;;8.40;;
19812;SDS011;10066;48.108;11.448;2023-05-13T00:17:12;9.87;;;8.40;;
19812;SDS011;10066;48.108;11.448;2023-05-13T00:19:39;13.33;;;8.23;;
19812;SDS011;10066;48.108;11.448;2023-05-13T00:22:06;10.63;;;8.67;;
19812;SDS011;10066;48.108;11.448;2023-05-13T00:24:33;11.17;;;8.80;;
19812;SDS011;10066;48.108;11.448;2023-05-13T00:27:00;10.47;;;8.10;;
19812;SDS011;10066;48.108;11.448;2023-05-13T00:29:28;12.30;;;8.60;;
19812;SDS011;10066;48.108;11.448;2023-05-13T00:31:56;12.20;;;9.33;;
19812;SDS011;10066;48.108;11.448;2023-05-13T00:34:22;12.40;;;9.90;;
19812;SDS011;10066;48.108;11.448;2023-05-13T00:36:50;10.90;;;9.30;;
19812;SDS011;10066;48.108;11.448;2023-05-13T00:39:17;12.20;;;8.23;;
19812;SDS011;10066;48.108;11.448;2023-05-13T00:41:44;12.20;;;8.93;;
19812;SDS011;10066;48.108;11.448;2023-05-13T00:44:11;10.63;;;9.10;;
19812;SDS011;10066;48.108;11.448;2023-05-13T00:46:39;11.00;;;8.73;;
19812;SDS011;10066;48.108;11.448;2023-05-13T00:49:06;15.03;;;9.80;;
19812;SDS011;10066;48.108;11.448;2023-05-13T00:51:34;16.80;;;11.37;;
19812;SDS011;10066;48.108;11.448;2023-05-13T00:54:02;11.40;;;9.13;;
19812;SDS011;10066;48.108;11.448;2023-05-13T00:56:30;13.43;;;9.70;;
19812;SDS011;10066;48.108;11.448;2023-05-13T00:58:56;14.20;;;11.13;;
19812;SDS011;10066;48.108;11.448;2023-05-13T01:01:25;14.97;;;9.63;;
19812;SDS011;10066;48.108;11.448;2023-05-13T01:04:02;14.17;;;10.90;;
19812;SDS011;10066;48.108;11.448;2023-05-13T01:06:37;15.50;;;11.37;;
19812;SDS011;10066;48.108;11.448;2023-05-13T01:09:14;15.07;;;11.23;;
19812;SDS011;10066;48.108;11.448;2023-05-13T01:11:46;15.03;;;11.20;;
19812;SDS011;10066;48.108;11.448;2023-05-13T01:14:18;15.10;;;12.20;;
19812;SDS011;10066;48.108;11.448;2023-05-13T01:16:54;16.50;;;11.43;;
19812;SDS011;10066;48.108;11.448;2023-05-13T01:19:32;14.90;;;11.70;;
19812;SDS011;10066;48.108;11.448;2023-05-13T01:22:05;14.33;;;11.63;;
19812;SDS011;10066;48.108;11.448;2023-05-13T01:24:32;15.10;;;11.70;;
19812;SDS011;10066;48.108;11.448;2023-05-13T01:26:59;16.73;;;12.90;;
19812;SDS011;10066;48.108;11.448;2023-05-13T01:29:26;17.93;;;12.33;;
19812;SDS011;10066;48.108;11.448;2023-05-13T01:31:54;16.77;;;11.90;;
19812;SDS011;10066;48.108;11.448;2023-05-13T01:34:22;15.33;;;11.97;;
19812;SDS011;10066;48.108;11.448;2023-05-13T01:36:50;12.03;;;9.77;;
19812;SDS011;10066;48.108;11.448;2023-05-13T01:39:19;17.07;;;12.13;;
19812;SDS011;10066;48.108;11.448;2023-05-13T01:41:47;18.90;;;12.10;;
19812;SDS011;10066;48.108;11.448;2023-05-13T01:44:14;21.20;;;13.70;;
19812;SDS011;10066;48.108;11.448;2023-05-13T01:46:41;16.27;;;12.97;;
19812;SDS011;10066;48.108;11.448;2023-05-13T01:49:09;21.10;;;12.77;;
19812;SDS011;10066;48.108;11.448;2023-05-13T01:51:36;18.00;;;12.70;;
19812;SDS011;10066;48.108;11.448;2023-05-13T01:54:04;21.03;;;14.23;;
19812;SDS011;10066;48.108;11.448;2023-05-13T01:56:32;20.47;;;14.50;;
19812;SDS011;10066;48.108;11.448;2023-05-13T01:59:00;16.93;;;12.93;;
19812;SDS011;10066;48.108;11.448;2023-05-13T02:01:27;18.23;;;12.13;;
19812;SDS011;10066;48.108;11.448;2023-05-13T02:03:55;19.60;;;14.07;;
19812;SDS011;10066;48.108;11.448;2023-05-13T02:06:22;20.97;;;14.27;;
19812;SDS011;10066;48.108;11.448;2023-05-13T02:08:49;19.47;;;13.73;;
19812;SDS011;10066;48.108;11.448;2023-05-13T02:11:16;19.83;;;14.37;;
19812;SDS011;10066;48.108;11.448;2023-05-13T02:13:44;22.53;;;14.80;;
19812;SDS011;10066;48.108;11.448;2023-05-13T02:16:13;16.77;;;13.43;;
19812;SDS011;10066;48.108;11.448;2023-05-13T02:18:41;18.17;;;14.10;;
19812;SDS011;10066;48.108;11.448;2023-05-13T02:21:08;18.57;;;14.00;;
19812;SDS011;10066;48.108;11.448;2023-05-13T02:23:36;19.50;;;14.07;;
19812;SDS011;10066;48.108;11.448;2023-05-13T02:26:03;18.10;;;13.53;;
19812;SDS011;10066;48.108;11.448;2023-05-13T02:28:30;17.67;;;13.60;;
19812;SDS011;10066;48.108;11.448;2023-05-13T02:30:58;18.57;;;13.60;;
19812;SDS011;10066;48.108;11.448;2023-05-13T02:33:26;18.13;;;13.97;;
19812;SDS011;10066;48.108;11.448;2023-05-13T02:35:52;17.50;;;13.40;;
19812;SDS011;10066;48.108;11.448;2023-05-13T02:38:19;18.67;;;15.03;;
19812;SDS011;10066;48.108;11.448;2023-05-13T02:40:46;21.33;;;14.70;;
19812;SDS011;10066;48.108;11.448;2023-05-13T02:43:13;19.13;;;14.63;;
19812;SDS011;10066;48.108;11.448;2023-05-13T02:45:40;21.80;;;15.57;;
19812;SDS011;10066;48.108;11.448;2023-05-13T02:48:08;18.53;;;15.03;;
19812;SDS011;10066;48.108;11.448;2023-05-13T02:50:36;19.57;;;15.07;;
19812;SDS011;10066;48.108;11.448;2023-05-13T02:53:04;21.43;;;15.50;;
19812;SDS011;10066;48.108;11.448;2023-05-13T02:55:31;19.77;;;15.13;;
19812;SDS011;10066;48.108;11.448;2023-05-13T02:57:58;21.00;;;15.43;;
19812;SDS011;10066;48.108;11.448;2023-05-13T03:00:25;20.50;;;15.40;;
19812;SDS011;10066;48.108;11.448;2023-05-13T03:02:52;20.43;;;14.33;;
19812;SDS011;10066;48.108;11.448;2023-05-13T03:05:20;22.43;;;16.83;;
19812;SDS011;10066;48.108;11.448;2023-05-13T03:07:47;18.83;;;15.00;;
19812;SDS011;10066;48.108;11.448;2023-05-13T03:10:14;21.50;;;14.83;;
19812;SDS011;10066;48.108;11.448;2023-05-13T03:12:42;21.30;;;14.70;;
19812;SDS011;10066;48.108;11.448;2023-05-13T03:15:09;19.80;;;14.97;;
19812;SDS011;10066;48.108;11.448;2023-05-13T03:17:36;18.07;;;14.73;;
19812;SDS011;10066;48.108;11.448;2023-05-13T03:20:03;21.07;;;14.87;;
19812;SDS011;10066;48.108;11.448;2023-05-13T03:22:32;18.97;;;14.83;;
19812;SDS011;10066;48.108;11.448;2023-05-13T03:24:59;21.63;;;14.00;;
19812;SDS011;10066;48.108;11.448;2023-05-13T03:27:26;18.97;;;13.67;;
19812;SDS011;10066;48.108;11.448;2023-05-13T03:29:53;19.13;;;14.50;;
19812;SDS011;10066;48.108;11.448;2023-05-13T03:32:20;16.00;;;12.50;;
19812;SDS011;10066;48.108;11.448;2023-05-13T03:34:49;16.03;;;13.23;;
19812;SDS011;10066;48.108;11.448;2023-05-13T03:37:16;21.27;;;14.43;;
19812;SDS011;10066;48.108;11.448;2023-05-13T03:39:45;18.43;;;14.03;;
19812;SDS011;10066;48.108;11.448;2023-05-13T03:42:12;17.33;;;13.43;;
19812;SDS011;10066;48.108;11.448;2023-05-13T03:44:42;19.00;;;13.50;;
19812;SDS011;10066;48.108;11.448;2023-05-13T03:47:09;17.27;;;14.07;;
19812;SDS011;10066;48.108;11.448;2023-05-13T03:49:36;19.00;;;13.83;;
19812;SDS011;10066;48.108;11.448;2023-05-13T03:52:03;17.50;;;13.50;;
19812;SDS011;10066;48.108;11.448;2023-05-13T03:54:31;19.43;;;15.33;;
19812;SDS011;10066;48.108;11.448;2023-05-13T03:57:01;22.37;;;15.40;;
19812;SDS011;10066;48.108;11.448;2023-05-13T03:59:28;20.83;;;15.53;;
19812;SDS011;10066;48.108;11.448;2023-05-13T04:01:55;21.23;;;15.77;;
19812;SDS011;10066;48.108;11.448;2023-05-13T04:04:22;22.03;;;14.80;;
19812;SDS011;10066;48.108;11.448;2023-05-13T04:06:49;20.87;;;16.13;;
19812;SDS011;10066;48.108;11.448;2023-05-13T04:09:16;17.70;;;15.27;;
19812;SDS011;10066;48.108;11.448;2023-05-13T04:11:44;20.27;;;15.43;;
19812;SDS011;10066;48.108;11.448;2023-05-13T04:14:12;20.50;;;16.30;;
19812;SDS011;10066;48.108;11.448;2023-05-13T04:16:39;20.73;;;16.77;;
19812;SDS011;10066;48.108;11.448;2023-05-13T04:19:06;24.93;;;15.50;;
19812;SDS011;10066;48.108;11.448;2023-05-13T04:21:37;19.87;;;16.07;;
19812;SDS011;10066;48.108;11.448;2023-05-13T04:24:04;23.87;;;16.90;;
19812;SDS011;10066;48.108;11.448;2023-05-13T04:26:31;25.53;;;17.27;;
19812;SDS011;10066;48.108;11.448;2023-05-13T04:28:59;22.50;;;17.17;;
19812;SDS011;10066;48.108;11.448;2023-05-13T04:31:27;25.63;;;17.50;;
19812;SDS011;10066;48.108;11.448;2023-05-13T04:33:54;25.43;;;16.93;;
19812;SDS011;10066;48.108;11.448;2023-05-13T04:36:22;25.53;;;16.67;;
19812;SDS011;10066;48.108;11.448;2023-05-13T04:38:48;22.57;;;17.00;;
19812;SDS011;10066;48.108;11.448;2023-05-13T04:41:15;25.07;;;17.03;;
19812;SDS011;10066;48.108;11.448;2023-05-13T04:43:45;25.90;;;17.97;;
19812;SDS011;10066;48.108;11.448;2023-05-13T04:46:12;22.33;;;16.50;;
19812;SDS011;10066;48.108;11.448;2023-05-13T04:48:40;24.97;;;17.80;;
19812;SDS011;10066;48.108;11.448;2023-05-13T04:51:12;25.03;;;16.73;;
19812;SDS011;10066;48.108;11.448;2023-05-13T04:53:39;23.13;;;17.10;;
19812;SDS011;10066;48.108;11.448;2023-05-13T04:56:06;24.07;;;16.73;;
19812;SDS011;10066;48.108;11.448;2023-05-13T04:58:33;23.23;;;17.23;;
19812;SDS011;10066;48.108;11.448;2023-05-13T05:01:00;26.23;;;18.00;;
19812;SDS011;10066;48.108;11.448;2023-05-13T05:03:27;28.40;;;18.03;;
19812;SDS011;10066;48.108;11.448;2023-05-13T05:05:55;23.23;;;17.53;;
19812;SDS011;10066;48.108;11.448;2023-05-13T05:08:23;22.73;;;17.30;;
19812;SDS011;10066;48.108;11.448;2023-05-13T05:10:50;28.83;;;18.73;;
19812;SDS011;10066;48.108;11.448;2023-05-13T05:13:17;25.73;;;17.93;;
19812;SDS011;10066;48.108;11.448;2023-05-13T05:15:43;23.13;;;17.13;;
19812;SDS011;10066;48.108;11.448;2023-05-13T05:18:10;26.17;;;17.73;;
19812;SDS011;10066;48.108;11.448;2023-05-13T05:20:38;23.03;;;15.90;;
19812;SDS011;10066;48.108;11.448;2023-05-13T05:23:06;22.80;;;16.47;;
19812;SDS011;10066;48.108;11.448;2023-05-13T05:25:34;26.67;;;17.07;;
19812;SDS011;10066;48.108;11.448;2023-05-13T05:28:01;23.57;;;17.03;;
19812;SDS011;10066;48.108;11.448;2023-05-13T05:30:29;25.87;;;17.83;;
19812;SDS011;10066;48.108;11.448;2023-05-13T05:32:56;22.33;;;16.17;;
19812;SDS011;10066;48.108;11.448;2023-05-13T05:35:23;24.33;;;17.77;;
19812;SDS011;10066;48.108;11.448;2023-05-13T05:37:50;22.17;;;15.37;;
19812;SDS011;10066;48.108;11.448;2023-05-13T05:40:20;25.00;;;16.07;;
19812;SDS011;10066;48.108;11.448;2023-05-13T05:42:47;22.67;;;16.50;;
19812;SDS011;10066;48.108;11.448;2023-05-13T05:45:14;21.83;;;15.43;;
19812;SDS011;10066;48.108;11.448;2023-05-13T05:47:41;20.30;;;15.30;;
19812;SDS011;10066;48.108;11.448;2023-05-13T05:50:08;18.03;;;14.27;;
19812;SDS011;10066;48.108;11.448;2023-05-13T05:52:35;18.93;;;13.67;;
19812;SDS011;10066;48.108;11.448;2023-05-13T05:55:02;19.00;;;14.40;;
19812;SDS011;10066;48.108;11.448;2023-05-13T05:57:32;21.13;;;14.03;;
19812;SDS011;10066;48.108;11.448;2023-05-13T05:59:59;17.70;;;13.37;;
19812;SDS011;10066;48.108;11.448;2023-05-13T06:02:26;17.60;;;13.10;;
19812;SDS011;10066;48.108;11.448;2023-05-13T06:04:53;18.93;;;12.97;;
19812;SDS011;10066;48.108;11.448;2023-05-13T06:07:20;19.70;;;13.53;;
19812;SDS011;10066;48.108;11.448;2023-05-13T06:09:48;18.43;;;13.70;;
19812;SDS011;10066;48.108;11.448;2023-05-13T06:12:15;18.93;;;13.80;;
19812;SDS011;10066;48.108;11.448;2023-05-13T06:14:44;18.97;;;13.47;;
19812;SDS011;10066;48.108;11.448;2023-05-13T06:17:11;20.27;;;14.03;;
19812;SDS011;10066;48.108;11.448;2023-05-13T06:19:38;19.33;;;13.60;;
19812;SDS011;10066;48.108;11.448;2023-05-13T06:22:06;18.90;;;13.07;;
19812;SDS011;10066;48.108;11.448;2023-05-13T06:24:33;20.50;;;14.33;;
19812;SDS011;10066;48.108;11.448;2023-05-13T06:27:00;19.80;;;14.00;;
19812;SDS011;10066;48.108;11.448;2023-05-13T06:29:27;21.53;;;14.33;;
19812;SDS011;10066;48.108;11.448;2023-05-13T06:31:56;18.73;;;13.80;;
19812;SDS011;10066;48.108;11.448;2023-05-13T06:34:22;17.73;;;13.90;;
19812;SDS011;10066;48.108;11.448;2023-05-13T06:36:49;21.60;;;14.53;;
19812;SDS011;10066;48.108;11.448;2023-05-13T06:39:16;22.03;;;14.57;;
19812;SDS011;10066;48.108;11.448;2023-05-13T06:41:43;20.80;;;14.53;;
19812;SDS011;10066;48.108;11.448;2023-05-13T06:44:10;21.90;;;13.53;;
19812;SDS011;10066;48.108;11.448;2023-05-13T06:46:37;23.33;;;15.23;;
19812;SDS011;10066;48.108;11.448;2023-05-13T06:49:05;21.53;;;15.20;;
19812;SDS011;10066;48.108;11.448;2023-05-13T06:51:32;23.13;;;16.17;;
19812;SDS011;10066;48.108;11.448;2023-05-13T06:53:59;20.67;;;15.33;;
19812;SDS011;10066;48.108;11.448;2023-05-13T06:56:26;23.40;;;15.50;;
19812;SDS011;10066;48.108;11.448;2023-05-13T06:58:54;22.13;;;15.67;;
19812;SDS011;10066;48.108;11.448;2023-05-13T07:01:21;20.37;;;15.00;;
19812;SDS011;10066;48.108;11.448;2023-05-13T07:03:48;19.17;;;14.53;;
19812;SDS011;10066;48.108;11.448;2023-05-13T07:06:17;17.93;;;12.67;;
19812;SDS011;10066;48.108;11.448;2023-05-13T07:08:44;17.33;;;14.20;;
19812;SDS011;10066;48.108;11.448;2023-05-13T07:11:11;21.17;;;14.80;;
19812;SDS011;10066;48.108;11.448;2023-05-13T07:13:38;15.80;;;11.53;;
19812;SDS011;10066;48.108;11.448;2023-05-13T07:16:05;29.03;;;14.40;;
19812;SDS011;10066;48.108;11.448;2023-05-13T07:18:32;18.07;;;14.43;;
19812;SDS011;10066;48.108;11.448;2023-05-13T07:20:59;18.37;;;13.60;;
19812;SDS011;10066;48.108;11.448;2023-05-13T07:23:28;18.00;;;13.27;;
19812;SDS011;10066;48.108;11.448;2023-05-13T07:25:55;20.73;;;12.70;;
19812;SDS011;10066;48.108;11.448;2023-05-13T07:28:23;19.53;;;14.20;;
19812;SDS011;10066;48.108;11.448;2023-05-13T07:30:52;20.50;;;13.93;;
19812;SDS011;10066;48.108;11.448;2023-05-13T07:33:19;18.50;;;12.93;;
19812;SDS011;10066;48.108;11.448;2023-05-13T07:35:46;18.17;;;13.27;;
19812;SDS011;10066;48.108;11.448;2023-05-13T07:38:13;19.73;;;13.73;;
19812;SDS011;10066;48.108;11.448;2023-05-13T07:40:41;19.63;;;13.77;;
19812;SDS011;10066;48.108;11.448;2023-05-13T07:43:08;18.50;;;11.93;;
19812;SDS011;10066;48.108;11.448;2023-05-13T07:45:36;16.50;;;12.87;;
19812;SDS011;10066;48.108;11.448;2023-05-13T07:48:03;18.77;;;13.70;;
19812;SDS011;10066;48.108;11.448;2023-05-13T07:50:30;17.53;;;13.30;;
19812;SDS011;10066;48.108;11.448;2023-05-13T07:52:57;18.23;;;12.73;;
19812;SDS011;10066;48.108;11.448;2023-05-13T07:55:24;16.60;;;13.17;;
19812;SDS011;10066;48.108;11.448;2023-05-13T07:57:53;15.43;;;11.57;;
19812;SDS011;10066;48.108;11.448;2023-05-13T08:00:19;16.00;;;10.97;;
19812;SDS011;10066;48.108;11.448;2023-05-13T08:02:47;13.33;;;10.37;;
19812;SDS011;10066;48.108;11.448;2023-05-13T08:05:14;15.30;;;9.97;;
19812;SDS011;10066;48.108;11.448;2023-05-13T08:07:41;15.10;;;11.60;;
19812;SDS011;10066;48.108;11.448;2023-05-13T08:10:08;15.10;;;11.83;;
19812;SDS011;10066;48.108;11.448;2023-05-13T08:12:36;16.90;;;13.27;;
19812;SDS011;10066;48.108;11.448;2023-05-13T08:15:08;15.80;;;12.67;;
19812;SDS011;10066;48.108;11.448;2023-05-13T08:17:36;20.30;;;14.77;;
19812;SDS011;10066;48.108;11.448;2023-05-13T08:20:05;21.33;;;15.13;;
19812;SDS011;10066;48.108;11.448;2023-05-13T08:22:35;21.50;;;15.33;;
19812;SDS011;10066;48.108;11.448;2023-05-13T08:25:02;22.90;;;15.83;;
19812;SDS011;10066;48.108;11.448;2023-05-13T08:27:29;23.83;;;15.40;;
19812;SDS011;10066;48.108;11.448;2023-05-13T08:29:56;24.47;;;16.60;;
19812;SDS011;10066;48.108;11.448;2023-05-13T08:32:25;24.87;;;16.87;;
19812;SDS011;10066;48.108;11.448;2023-05-13T08:34:52;21.20;;;15.03;;
19812;SDS011;10066;48.108;11.448;2023-05-13T08:37:20;24.23;;;17.33;;
19812;SDS011;10066;48.108;11.448;2023-05-13T08:39:47;23.77;;;15.67;;
19812;SDS011;10066;48.108;11.448;2023-05-13T08:42:14;22.33;;;15.93;;
19812;SDS011;10066;48.108;11.448;2023-05-13T08:44:45;20.13;;;14.33;;
19812;SDS011;10066;48.108;11.448;2023-05-13T08:47:15;22.17;;;15.80;;
19812;SDS011;10066;48.108;11.448;2023-05-13T08:49:53;19.27;;;13.43;;
19812;SDS011;10066;48.108;11.448;2023-05-13T08:52:21;19.50;;;12.57;;
19812;SDS011;10066;48.108;11.448;2023-05-13T08:54:48;21.20;;;14.40;;
19812;SDS011;10066;48.108;11.448;2023-05-13T08:57:17;17.83;;;13.93;;
19812;SDS011;10066;48.108;11.448;2023-05-13T08:59:43;20.13;;;13.23;;
19812;SDS011;10066;48.108;11.448;2023-05-13T09:02:11;20.67;;;15.47;;
19812;SDS011;10066;48.108;11.448;2023-05-13T09:04:38;20.57;;;14.83;;
19812;SDS011;10066;48.108;11.448;2023-05-13T09:07:11;20.97;;;14.90;;
19812;SDS011;10066;48.108;11.448;2023-05-13T09:09:37;21.23;;;15.27;;
19812;SDS011;10066;48.108;11.448;2023-05-13T09:12:05;19.20;;;13.47;;
19812;SDS011;10066;48.108;11.448;2023-05-13T09:14:33;21.40;;;13.87;;
19812;SDS011;10066;48.108;11.448;2023-05-13T09:17:00;23.00;;;16.00;;
19812;SDS011;10066;48.108;11.448;2023-05-13T09:19:27;23.93;;;17.17;;
19812;SDS011;10066;48.108;11.448;2023-05-13T09:21:55;15.73;;;10.70;;
19812;SDS011;10066;48.108;11.448;2023-05-13T09:24:23;22.80;;;16.80;;
19812;SDS011;10066;48.108;11.448;2023-05-13T09:26:50;21.70;;;16.37;;
19812;SDS011;10066;48.108;11.448;2023-05-13T09:29:18;20.53;;;16.00;;
19812;SDS011;10066;48.108;11.448;2023-05-13T09:31:48;22.13;;;15.97;;
19812;SDS011;10066;48.108;11.448;2023-05-13T09:34:27;21.43;;;15.23;;
19812;SDS011;10066;48.108;11.448;2023-05-13T09:36:58;19.37;;;15.03;;
19812;SDS011;10066;48.108;11.448;2023-05-13T09:39:29;20.23;;;15.90;;
19812;SDS011;10066;48.108;11.448;2023-05-13T09:41:57;17.83;;;13.80;;
19812;SDS011;10066;48.108;11.448;2023-05-13T09:44:25;17.37;;;13.90;;
19812;SDS011;10066;48.108;11.448;2023-05-13T09:46:53;16.03;;;13.93;;
19812;SDS011;10066;48.108;11.448;2023-05-13T09:49:25;17.03;;;14.13;;
19812;SDS011;10066;48.108;11.448;2023-05-13T09:51:52;17.47;;;12.00;;
19812;SDS011;10066;48.108;11.448;2023-05-13T09:54:18;18.47;;;12.23;;
19812;SDS011;10066;48.108;11.448;2023-05-13T09:56:47;15.60;;;12.23;;
19812;SDS011;10066;48.108;11.448;2023-05-13T09:59:14;10.50;;;9.07;;
19812;SDS011;10066;48.108;11.448;2023-05-13T10:01:41;10.27;;;8.57;;
19812;SDS011;10066;48.108;11.448;2023-05-13T10:04:09;10.83;;;9.73;;
19812;SDS011;10066;48.108;11.448;2023-05-13T10:06:36;12.67;;;9.10;;
19812;SDS011;10066;48.108;11.448;2023-05-13T10:09:04;10.97;;;8.77;;
19812;SDS011;10066;48.108;11.448;2023-05-13T10:11:35;13.30;;;8.52;;
19812;SDS011;10066;48.108;11.448;2023-05-13T10:14:04;9.40;;;7.90;;
19812;SDS011;10066;48.108;11.448;2023-05-13T10:16:32;13.37;;;8.07;;
19812;SDS011;10066;48.108;11.448;2023-05-13T10:18:59;9.47;;;7.60;;
19812;SDS011;10066;48.108;11.448;2023-05-13T10:21:28;8.77;;;7.13;;
19812;SDS011;10066;48.108;11.448;2023-05-13T10:23:56;8.73;;;7.53;;
19812;SDS011;10066;48.108;11.448;2023-05-13T10:26:24;8.43;;;7.30;;
19812;SDS011;10066;48.108;11.448;2023-05-13T10:28:52;8.53;;;6.80;;
19812;SDS011;10066;48.108;11.448;2023-05-13T10:31:22;10.07;;;7.90;;
19812;SDS011;10066;48.108;11.448;2023-05-13T10:33:50;9.00;;;7.13;;
19812;SDS011;10066;48.108;11.448;2023-05-13T10:36:25;7.40;;;6.67;;
19812;SDS011;10066;48.108;11.448;2023-05-13T10:39:21;8.30;;;6.53;;
19812;SDS011;10066;48.108;11.448;2023-05-13T10:42:20;7.73;;;6.33;;
19812;SDS011;10066;48.108;11.448;2023-05-13T10:45:06;5.83;;;5.23;;
19812;SDS011;10066;48.108;11.448;2023-05-13T10:47:35;5.80;;;5.23;;
19812;SDS011;10066;48.108;11.448;2023-05-13T10:50:04;6.43;;;5.47;;
19812;SDS011;10066;48.108;11.448;2023-05-13T10:52:41;6.13;;;5.20;;
19812;SDS011;10066;48.108;11.448;2023-05-13T10:55:15;6.27;;;4.50;;
19812;SDS011;10066;48.108;11.448;2023-05-13T11:00:33;6.00;;;4.75;;
19812;SDS011;10066;48.108;11.448;2023-05-13T11:03:26;4.87;;;4.37;;
19812;SDS011;10066;48.108;11.448;2023-05-13T11:06:00;11.43;;;4.43;;
19812;SDS011;10066;48.108;11.448;2023-05-13T11:08:39;6.17;;;4.20;;
19812;SDS011;10066;48.108;11.448;2023-05-13T11:11:16;5.00;;;4.30;;
19812;SDS011;10066;48.108;11.448;2023-05-13T11:13:48;5.57;;;4.47;;
19812;SDS011;10066;48.108;11.448;2023-05-13T11:16:15;5.07;;;4.57;;
19812;SDS011;10066;48.108;11.448;2023-05-13T11:18:44;4.70;;;4.30;;
19812;SDS011;10066;48.108;11.448;2023-05-13T11:21:13;4.90;;;4.40;;
19812;SDS011;10066;48.108;11.448;2023-05-13T11:23:54;4.67;;;4.20;;
19812;SDS011;10066;48.108;11.448;2023-05-13T11:26:22;5.70;;;3.93;;
19812;SDS011;10066;48.108;11.448;2023-05-13T11:28:53;3.90;;;3.50;;
19812;SDS011;10066;48.108;11.448;2023-05-13T11:31:22;4.70;;;3.80;;
19812;SDS011;10066;48.108;11.448;2023-05-13T11:34:07;5.63;;;4.10;;
19812;SDS011;10066;48.108;11.448;2023-05-13T11:36:35;3.70;;;3.10;;
19812;SDS011;10066;48.108;11.448;2023-05-13T11:39:04;3.40;;;3.10;;
19812;SDS011;10066;48.108;11.448;2023-05-13T11:41:32;4.00;;;2.97;;
19812;SDS011;10066;48.108;11.448;2023-05-13T11:44:00;4.03;;;3.20;;
19812;SDS011;10066;48.108;11.448;2023-05-13T11:46:30;3.30;;;3.00;;
19812;SDS011;10066;48.108;11.448;2023-05-13T11:48:57;3.33;;;3.03;;
19812;SDS011;10066;48.108;11.448;2023-05-13T11:51:25;3.67;;;3.20;;
19812;SDS011;10066;48.108;11.448;2023-05-13T11:53:59;3.53;;;2.97;;
19812;SDS011;10066;48.108;11.448;2023-05-13T11:56:29;3.00;;;2.70;;
19812;SDS011;10066;48.108;11.448;2023-05-13T11:59:11;3.20;;;2.80;;
19812;SDS011;10066;48.108;11.448;2023-05-13T12:01:39;3.10;;;2.50;;
19812;SDS011;10066;48.108;11.448;2023-05-13T12:04:06;2.70;;;2.50;;
19812;SDS011;10066;48.108;11.448;2023-05-13T12:06:41;4.40;;;2.70;;
19812;SDS011;10066;48.108;11.448;2023-05-13T12:09:10;3.17;;;2.90;;
19812;SDS011;10066;48.108;11.448;2023-05-13T12:11:38;3.50;;;2.70;;
19812;SDS011;10066;48.108;11.448;2023-05-13T12:14:06;2.80;;;2.60;;
19812;SDS011;10066;48.108;11.448;2023-05-13T12:16:34;2.83;;;2.57;;
19812;SDS011;10066;48.108;11.448;2023-05-13T12:19:03;2.63;;;2.43;;
19812;SDS011;10066;48.108;11.448;2023-05-13T12:21:31;2.70;;;2.50;;
19812;SDS011;10066;48.108;11.448;2023-05-13T12:24:00;3.80;;;2.77;;
19812;SDS011;10066;48.108;11.448;2023-05-13T12:26:42;2.87;;;2.67;;
19812;SDS011;10066;48.108;11.448;2023-05-13T12:29:08;2.60;;;2.40;;
19812;SDS011;10066;48.108;11.448;2023-05-13T12:31:36;2.83;;;2.43;;
19812;SDS011;10066;48.108;11.448;2023-05-13T12:34:03;2.73;;;2.53;;
19812;SDS011;10066;48.108;11.448;2023-05-13T12:36:30;3.03;;;2.53;;
19812;SDS011;10066;48.108;11.448;2023-05-13T12:39:03;2.53;;;2.20;;
19812;SDS011;10066;48.108;11.448;2023-05-13T12:41:31;2.33;;;2.07;;
19812;SDS011;10066;48.108;11.448;2023-05-13T12:44:00;2.27;;;2.17;;
19812;SDS011;10066;48.108;11.448;2023-05-13T12:46:28;2.27;;;2.07;;
19812;SDS011;10066;48.108;11.448;2023-05-13T12:48:55;3.50;;;2.40;;
19812;SDS011;10066;48.108;11.448;2023-05-13T12:51:24;2.80;;;2.60;;
19812;SDS011;10066;48.108;11.448;2023-05-13T12:53:53;5.00;;;2.50;;
19812;SDS011;10066;48.108;11.448;2023-05-13T12:56:23;2.60;;;2.40;;
19812;SDS011;10066;48.108;11.448;2023-05-13T12:58:51;2.63;;;2.43;;
19812;SDS011;10066;48.108;11.448;2023-05-13T13:01:19;2.60;;;2.40;;
19812;SDS011;10066;48.108;11.448;2023-05-13T13:03:46;3.23;;;3.00;;
19812;SDS011;10066;48.108;11.448;2023-05-13T13:06:13;3.00;;;2.70;;
19812;SDS011;10066;48.108;11.448;2023-05-13T13:08:41;2.90;;;2.70;;
19812;SDS011;10066;48.108;11.448;2023-05-13T13:11:08;3.30;;;3.00;;
19812;SDS011;10066;48.108;11.448;2023-05-13T13:13:40;3.00;;;2.73;;
19812;SDS011;10066;48.108;11.448;2023-05-13T13:16:07;3.60;;;2.70;;
19812;SDS011;10066;48.108;11.448;2023-05-13T13:18:34;3.40;;;3.10;;
19812;SDS011;10066;48.108;11.448;2023-05-13T13:21:01;3.27;;;2.97;;
19812;SDS011;10066;48.108;11.448;2023-05-13T13:23:29;3.40;;;3.07;;
19812;SDS011;10066;48.108;11.448;2023-05-13T13:25:56;3.17;;;2.97;;
19812;SDS011;10066;48.108;11.448;2023-05-13T13:28:23;3.77;;;3.40;;
19812;SDS011;10066;48.108;11.448;2023-05-13T13:30:52;3.40;;;3.10;;
19812;SDS011;10066;48.108;11.448;2023-05-13T13:33:19;3.80;;;2.90;;
19812;SDS011;10066;48.108;11.448;2023-05-13T13:35:46;3.47;;;2.83;;
19812;SDS011;10066;48.108;11.448;2023-05-13T13:38:15;3.40;;;3.10;;
19812;SDS011;10066;48.108;11.448;2023-05-13T13:40:42;3.23;;;3.00;;
19812;SDS011;10066;48.108;11.448;2023-05-13T13:43:09;3.27;;;2.97;;
19812;SDS011;10066;48.108;11.448;2023-05-13T13:45:36;3.40;;;3.10;;
19812;SDS011;10066;48.108;11.448;2023-05-13T13:48:05;3.10;;;2.80;;
19812;SDS011;10066;48.108;11.448;2023-05-13T13:50:32;3.73;;;2.60;;
19812;SDS011;10066;48.108;11.448;2023-05-13T13:52:59;4.27;;;3.00;;
19812;SDS011;10066;48.108;11.448;2023-05-13T13:55:25;2.70;;;2.50;;
19812;SDS011;10066;48.108;11.448;2023-05-13T13:57:52;2.93;;;2.70;;
19812;SDS011;10066;48.108;11.448;2023-05-13T14:00:19;2.70;;;2.50;;
19812;SDS011;10066;48.108;11.448;2023-05-13T14:02:46;2.87;;;2.67;;
19812;SDS011;10066;48.108;11.448;2023-05-13T14:05:15;3.47;;;2.77;;
19812;SDS011;10066;48.108;11.448;2023-05-13T14:07:42;2.83;;;2.63;;
19812;SDS011;10066;48.108;11.448;2023-05-13T14:10:10;2.97;;;2.67;;
19812;SDS011;10066;48.108;11.448;2023-05-13T14:12:37;2.37;;;2.17;;
19812;SDS011;10066;48.108;11.448;2023-05-13T14:15:04;2.60;;;2.40;;
19812;SDS011;10066;48.108;11.448;2023-05-13T14:17:33;2.80;;;2.50;;
19812;SDS011;10066;48.108;11.448;2023-05-13T14:20:00;2.50;;;2.30;;
19812;SDS011;10066;48.108;11.448;2023-05-13T14:22:29;2.40;;;2.20;;
19812;SDS011;10066;48.108;11.448;2023-05-13T14:24:55;2.37;;;2.17;;
19812;SDS011;10066;48.108;11.448;2023-05-13T14:27:24;2.33;;;2.13;;
19812;SDS011;10066;48.108;11.448;2023-05-13T14:29:51;2.40;;;2.20;;